OOCL Atlanta — VRAR6 — position and weather

sailwx.info

Track history (hours):
 
Tides and Currents Weather Stations Pressure Air Temp Water Temp Dewpoint Dewpoint Depression Visibility Wind Speed Wind Dir Waves Ship Positions

OOCL Atlanta

Last reported at 2016-May-19 18:00 UTC. Time now 2016-May-31 05:51 UTC.
Position N 52°18' W 146°48'.
Warning: this ship's position is 11 days out of date.

Length 323 m; beam 42.8 m; draft 14.5 m.

Type: Cargo ship. MMSI: 477920300.

Wind from 300 at 16 knots

Waves 2.0 meters (7 feet), 7 second period

Barometer 1030.0 mb
Air temperature 11.0 ° C
Visibility: greater than 5.4 NM
Dewpoint 5.0 ° C
Water temperature 7.5 ° C

Date/timePositionNaut miles runAvg speedWind from/ knotsBaromVisibWave heightAir tempDewpointWater temp
2016-May-19 18:00N 52°18' W 146°48'73815.6 300 / 161030.0 5.4 2.011.0 5.0 7.5
2016-May-17 18:33N 48°29' W 128°27'3416.0
2016-May-17 16:25N 48°31' W 127°36'3116.5
2016-May-17 14:33N 48°31' W 126°49'1616.4
2016-May-17 13:33N 48°31' W 126°25'1616.3
2016-May-17 12:33N 48°31' W 126°00'1716.6
2016-May-17 11:33N 48°31' W 125°35'1716.8
2016-May-17 10:33N 48°31' W 125°10'5116.3
2016-May-17 07:24N 48°18' W 123°55'1214.6
2016-May-17 06:33N 48°15' W 123°37'1212.0
2016-May-17 05:34N 48°10' W 123°21'1716.9
2016-May-17 04:33N 48°12' W 122°55'1717.4
2016-May-17 03:34N 48°00' W 122°36'1818.4
2016-May-17 02:34N 47°43' W 122°26'9 8.7
2016-May-17 01:33N 47°35' W 122°21'0 0.0
2016-May-17 00:32N 47°35' W 122°21'0 0.0
2016-May-16 23:33N 47°35' W 122°21'0 0.0
2016-May-16 22:33N 47°35' W 122°21'0 0.0
2016-May-16 21:33N 47°35' W 122°21'0 0.0
2016-May-16 20:32N 47°35' W 122°21'0 0.0
2016-May-16 19:32N 47°35' W 122°21'0 0.0
2016-May-16 18:32N 47°35' W 122°21'0 0.0
2016-May-16 17:32N 47°35' W 122°21'0 0.0
2016-May-16 16:32N 47°35' W 122°21'0 0.0
2016-May-16 15:32N 47°35' W 122°21'0 0.0
2016-May-16 14:32N 47°35' W 122°21'0 0.0
2016-May-16 13:33N 47°35' W 122°21'0 0.0
2016-May-16 12:32N 47°35' W 122°21'0 0.0
2016-May-16 11:32N 47°35' W 122°21'0 0.0
2016-May-16 10:33N 47°35' W 122°21'0 0.0
2016-May-16 09:32N 47°35' W 122°21'0 0.0
2016-May-16 08:33N 47°35' W 122°21'0 0.0
2016-May-16 07:32N 47°35' W 122°21'0 0.0
2016-May-16 06:33N 47°35' W 122°21'0 0.0
2016-May-16 05:32N 47°35' W 122°21'0 0.0
2016-May-16 04:33N 47°35' W 122°21'0 0.0
2016-May-16 03:32N 47°35' W 122°21'2 1.6
2016-May-16 02:34N 47°37' W 122°22'8 8.5
2016-May-16 01:33N 47°28' W 122°24'1111.4
2016-May-16 00:33N 47°17' W 122°25'2 0.3
2016-May-15 18:14N 47°16' W 122°23'0 0.0
2016-May-15 16:29N 47°16' W 122°23'0 0.0
2016-May-15 12:26N 47°16' W 122°23'0 0.0
2016-May-15 11:32N 47°16' W 122°23'0 0.0
2016-May-15 04:20N 47°16' W 122°23'0 0.0
2016-May-15 03:32N 47°16' W 122°23'0 0.0
2016-May-15 02:20N 47°16' W 122°23'0 0.0
2016-May-14 13:17N 47°16' W 122°23'0 0.2
2016-May-14 12:33N 47°16' W 122°23'3 2.7
2016-May-14 11:33N 47°17' W 122°27'4 3.7
2016-May-14 10:33N 47°21' W 122°25'9 8.8
2016-May-14 09:33N 47°30' W 122°25'1919.1
2016-May-14 08:33N 47°49' W 122°28'1918.7
2016-May-14 07:33N 48°05' W 122°40'1919.0
2016-May-14 06:33N 48°12' W 123°07'1414.4
2016-May-14 05:33N 48°12' W 123°28'10 9.9
2016-May-14 04:33N 48°21' W 123°25'1211.7
2016-May-14 03:33N 48°30' W 123°12'1616.2
2016-May-14 02:33N 48°45' W 123°06'1514.8
2016-May-14 01:33N 48°60' W 123°10'1 1.4
2016-May-14 00:33N 49°01' W 123°09'0 0.0
2016-May-13 23:33N 49°01' W 123°09'0 0.0
2016-May-13 22:33N 49°01' W 123°09'0 0.0
2016-May-13 21:33N 49°01' W 123°09'0 0.0
2016-May-13 20:33N 49°01' W 123°09'0 0.0
2016-May-13 19:33N 49°01' W 123°09'0 0.0
2016-May-13 18:33N 49°01' W 123°09'0 0.0
2016-May-13 17:30N 49°01' W 123°09'0 0.0
2016-May-13 16:33N 49°01' W 123°09'0 0.0
2016-May-13 15:33N 49°01' W 123°09'0 0.0
2016-May-13 14:33N 49°01' W 123°09'0 0.0
2016-May-13 13:33N 49°01' W 123°09'0 0.0
2016-May-13 12:33N 49°01' W 123°09'0 0.0
2016-May-13 11:33N 49°01' W 123°09'0 0.0
2016-May-13 10:33N 49°01' W 123°09'0 0.0
2016-May-13 09:33N 49°01' W 123°09'0 0.0
2016-May-13 08:33N 49°01' W 123°09'0 0.0
2016-May-13 07:33N 49°01' W 123°09'0 0.0
2016-May-13 06:33N 49°01' W 123°09'0 0.0
2016-May-13 05:33N 49°01' W 123°09'0 0.0
2016-May-13 04:33N 49°01' W 123°09'0 0.0
2016-May-13 03:33N 49°01' W 123°09'0 0.0
2016-May-13 02:33N 49°01' W 123°09'0 0.0
2016-May-13 01:30N 49°01' W 123°09'0 0.0
2016-May-13 00:33N 49°01' W 123°09'0 0.0
2016-May-12 23:30N 49°01' W 123°09'0 0.0
2016-May-12 22:33N 49°01' W 123°09'0 0.0
2016-May-12 21:33N 49°01' W 123°09'0 0.0
2016-May-12 20:33N 49°01' W 123°09'0 0.0
2016-May-12 19:33N 49°01' W 123°09'0 0.0
2016-May-12 18:33N 49°01' W 123°09'0 0.0
2016-May-12 17:33N 49°01' W 123°09'0 0.0
2016-May-12 16:33N 49°01' W 123°09'0 0.0
2016-May-12 15:33N 49°01' W 123°09'0 0.0
2016-May-12 14:33N 49°01' W 123°09'0 0.0
2016-May-12 13:33N 49°01' W 123°09'0 0.0
2016-May-12 12:33N 49°01' W 123°09'0 0.0
2016-May-12 11:33N 49°01' W 123°09'0 0.0
2016-May-12 10:33N 49°01' W 123°09'0 0.0
2016-May-12 09:33N 49°01' W 123°09'0 0.0
2016-May-12 08:33N 49°01' W 123°09'0 0.0
2016-May-12 07:33N 49°01' W 123°09'0 0.0
2016-May-12 06:33N 49°01' W 123°09'0 0.0
2016-May-12 05:33N 49°01' W 123°09'0 0.0
2016-May-12 04:33N 49°01' W 123°09'0 0.0
2016-May-12 03:33N 49°01' W 123°09'0 0.0
2016-May-12 02:33N 49°01' W 123°09'0 0.0
2016-May-12 01:33N 49°01' W 123°09'0 0.0
2016-May-12 00:33N 49°01' W 123°09'0 0.0
2016-May-11 23:33N 49°01' W 123°09'0 0.0
2016-May-11 22:33N 49°01' W 123°09'0 0.0
2016-May-11 21:33N 49°01' W 123°09'0 0.0
2016-May-11 20:33N 49°01' W 123°09'0 0.0
2016-May-11 19:33N 49°01' W 123°09'0 0.0
2016-May-11 18:33N 49°01' W 123°09'0 0.0
2016-May-11 17:33N 49°01' W 123°09'0 0.0
2016-May-11 16:33N 49°01' W 123°09'0 0.0
2016-May-11 15:33N 49°01' W 123°09'0 0.0
2016-May-11 14:33N 49°01' W 123°09'0 0.0
2016-May-11 13:30N 49°01' W 123°09'0 0.0
2016-May-11 12:33N 49°01' W 123°09'0 0.0
2016-May-11 11:33N 49°01' W 123°09'0 0.0
2016-May-11 10:33N 49°01' W 123°09'0 0.0
2016-May-11 09:33N 49°01' W 123°09'0 0.0
2016-May-11 08:33N 49°01' W 123°09'0 0.0
2016-May-11 07:33N 49°01' W 123°09'0 0.0
2016-May-11 06:33N 49°01' W 123°09'0 0.0
2016-May-11 05:33N 49°01' W 123°09'0 0.0
2016-May-11 04:33N 49°01' W 123°09'0 0.0
2016-May-11 03:33N 49°01' W 123°09'0 0.0
2016-May-11 02:33N 49°01' W 123°09'0 0.0
2016-May-11 01:33N 49°01' W 123°09'0 0.0
2016-May-11 00:33N 49°01' W 123°09'0 0.0
2016-May-10 23:33N 49°01' W 123°09'0 0.0
2016-May-10 22:33N 49°01' W 123°09'0 0.1
2016-May-10 21:33N 49°01' W 123°09'1010.2
2016-May-10 20:33N 48°52' W 123°02'1414.3
2016-May-10 19:34N 48°41' W 123°15'1616.1
2016-May-10 18:33N 48°25' W 123°11'1211.6
2016-May-10 17:33N 48°19' W 123°25'9 9.3
2016-May-10 16:33N 48°13' W 123°37'1111.4
2016-May-10 15:33N 48°14' W 123°54'1211.8
2016-May-10 14:33N 48°18' W 124°11'2712.5
2016-May-10 12:22N 48°29' W 124°49'1113.8
2016-May-10 11:33N 48°28' W 125°06'1312.7
2016-May-10 10:34N 48°22' W 125°22'1313.1
2016-May-10 09:33N 48°15' W 125°38'1313.1
2016-May-10 08:33N 48°07' W 125°54'1313.1
2016-May-10 07:33N 47°59' W 126°10'1414.0
2016-May-10 06:33N 47°51' W 126°27'3113.7
2016-May-10 04:16N 47°32' W 127°04'1413.4
2016-May-10 03:14N 47°24' W 127°21'913.2
2016-May-10 02:33N 47°19' W 127°32'1313.3
2016-May-10 01:33N 47°11' W 127°47'1313.1
2016-May-10 00:33N 47°03' W 128°03'1313.0
2016-May-09 23:33N 46°55' W 128°18'  
Track history (hours):
 
Tides and Currents Weather Stations Pressure Air Temp Water Temp Dewpoint Dewpoint Depression Visibility Wind Speed Wind Dir Waves Ship Positions

OOCL Atlanta

Last reported at 2016-May-19 18:00 UTC. Time now 2016-May-31 05:51 UTC.
Position N 52°18' W 146°48'.
Warning: this ship's position is 11 days out of date.

Length 323 m; beam 42.8 m; draft 14.5 m.

Type: Cargo ship. MMSI: 477920300.

Wind from 300 at 16 knots

Waves 2.0 meters (7 feet), 7 second period

Barometer 1030.0 mb
Air temperature 11.0 ° C
Visibility: greater than 5.4 NM
Dewpoint 5.0 ° C
Water temperature 7.5 ° C

Date/timePositionNaut miles runAvg speedWind from/ knotsBaromVisibWave heightAir tempDewpointWater temp
2016-May-19 18:00N 52°18' W 146°48'73815.6 300 / 161030.0 5.4 2.011.0 5.0 7.5
2016-May-17 18:33N 48°29' W 128°27'3416.0
2016-May-17 16:25N 48°31' W 127°36'3116.5
2016-May-17 14:33N 48°31' W 126°49'1616.4
2016-May-17 13:33N 48°31' W 126°25'1616.3
2016-May-17 12:33N 48°31' W 126°00'1716.6
2016-May-17 11:33N 48°31' W 125°35'1716.8
2016-May-17 10:33N 48°31' W 125°10'5116.3
2016-May-17 07:24N 48°18' W 123°55'1214.6
2016-May-17 06:33N 48°15' W 123°37'1212.0
2016-May-17 05:34N 48°10' W 123°21'1716.9
2016-May-17 04:33N 48°12' W 122°55'1717.4
2016-May-17 03:34N 48°00' W 122°36'1818.4
2016-May-17 02:34N 47°43' W 122°26'9 8.7
2016-May-17 01:33N 47°35' W 122°21'0 0.0
2016-May-17 00:32N 47°35' W 122°21'0 0.0
2016-May-16 23:33N 47°35' W 122°21'0 0.0
2016-May-16 22:33N 47°35' W 122°21'0 0.0
2016-May-16 21:33N 47°35' W 122°21'0 0.0
2016-May-16 20:32N 47°35' W 122°21'0 0.0
2016-May-16 19:32N 47°35' W 122°21'0 0.0
2016-May-16 18:32N 47°35' W 122°21'0 0.0
2016-May-16 17:32N 47°35' W 122°21'0 0.0
2016-May-16 16:32N 47°35' W 122°21'0 0.0
2016-May-16 15:32N 47°35' W 122°21'0 0.0
2016-May-16 14:32N 47°35' W 122°21'0 0.0
2016-May-16 13:33N 47°35' W 122°21'0 0.0
2016-May-16 12:32N 47°35' W 122°21'0 0.0
2016-May-16 11:32N 47°35' W 122°21'0 0.0
2016-May-16 10:33N 47°35' W 122°21'0 0.0
2016-May-16 09:32N 47°35' W 122°21'0 0.0
2016-May-16 08:33N 47°35' W 122°21'0 0.0
2016-May-16 07:32N 47°35' W 122°21'0 0.0
2016-May-16 06:33N 47°35' W 122°21'0 0.0
2016-May-16 05:32N 47°35' W 122°21'0 0.0
2016-May-16 04:33N 47°35' W 122°21'0 0.0
2016-May-16 03:32N 47°35' W 122°21'2 1.6
2016-May-16 02:34N 47°37' W 122°22'8 8.5
2016-May-16 01:33N 47°28' W 122°24'1111.4
2016-May-16 00:33N 47°17' W 122°25'2 0.3
2016-May-15 18:14N 47°16' W 122°23'0 0.0
2016-May-15 16:29N 47°16' W 122°23'0 0.0
2016-May-15 12:26N 47°16' W 122°23'0 0.0
2016-May-15 11:32N 47°16' W 122°23'0 0.0
2016-May-15 04:20N 47°16' W 122°23'0 0.0
2016-May-15 03:32N 47°16' W 122°23'0 0.0
2016-May-15 02:20N 47°16' W 122°23'0 0.0
2016-May-14 13:17N 47°16' W 122°23'0 0.2
2016-May-14 12:33N 47°16' W 122°23'3 2.7
2016-May-14 11:33N 47°17' W 122°27'4 3.7
2016-May-14 10:33N 47°21' W 122°25'9 8.8
2016-May-14 09:33N 47°30' W 122°25'1919.1
2016-May-14 08:33N 47°49' W 122°28'1918.7
2016-May-14 07:33N 48°05' W 122°40'1919.0
2016-May-14 06:33N 48°12' W 123°07'1414.4
2016-May-14 05:33N 48°12' W 123°28'10 9.9
2016-May-14 04:33N 48°21' W 123°25'1211.7
2016-May-14 03:33N 48°30' W 123°12'1616.2
2016-May-14 02:33N 48°45' W 123°06'1514.8
2016-May-14 01:33N 48°60' W 123°10'1 1.4
2016-May-14 00:33N 49°01' W 123°09'0 0.0
2016-May-13 23:33N 49°01' W 123°09'0 0.0
2016-May-13 22:33N 49°01' W 123°09'0 0.0
2016-May-13 21:33N 49°01' W 123°09'0 0.0
2016-May-13 20:33N 49°01' W 123°09'0 0.0
2016-May-13 19:33N 49°01' W 123°09'0 0.0
2016-May-13 18:33N 49°01' W 123°09'0 0.0
2016-May-13 17:30N 49°01' W 123°09'0 0.0
2016-May-13 16:33N 49°01' W 123°09'0 0.0
2016-May-13 15:33N 49°01' W 123°09'0 0.0
2016-May-13 14:33N 49°01' W 123°09'0 0.0
2016-May-13 13:33N 49°01' W 123°09'0 0.0
2016-May-13 12:33N 49°01' W 123°09'0 0.0
2016-May-13 11:33N 49°01' W 123°09'0 0.0
2016-May-13 10:33N 49°01' W 123°09'0 0.0
2016-May-13 09:33N 49°01' W 123°09'0 0.0
2016-May-13 08:33N 49°01' W 123°09'0 0.0
2016-May-13 07:33N 49°01' W 123°09'0 0.0
2016-May-13 06:33N 49°01' W 123°09'0 0.0
2016-May-13 05:33N 49°01' W 123°09'0 0.0
2016-May-13 04:33N 49°01' W 123°09'0 0.0
2016-May-13 03:33N 49°01' W 123°09'0 0.0
2016-May-13 02:33N 49°01' W 123°09'0 0.0
2016-May-13 01:30N 49°01' W 123°09'0 0.0
2016-May-13 00:33N 49°01' W 123°09'0 0.0
2016-May-12 23:30N 49°01' W 123°09'0 0.0
2016-May-12 22:33N 49°01' W 123°09'0 0.0
2016-May-12 21:33N 49°01' W 123°09'0 0.0
2016-May-12 20:33N 49°01' W 123°09'0 0.0
2016-May-12 19:33N 49°01' W 123°09'0 0.0
2016-May-12 18:33N 49°01' W 123°09'0 0.0
2016-May-12 17:33N 49°01' W 123°09'0 0.0
2016-May-12 16:33N 49°01' W 123°09'0 0.0
2016-May-12 15:33N 49°01' W 123°09'0 0.0
2016-May-12 14:33N 49°01' W 123°09'0 0.0
2016-May-12 13:33N 49°01' W 123°09'0 0.0
2016-May-12 12:33N 49°01' W 123°09'0 0.0
2016-May-12 11:33N 49°01' W 123°09'0 0.0
2016-May-12 10:33N 49°01' W 123°09'0 0.0
2016-May-12 09:33N 49°01' W 123°09'0 0.0
2016-May-12 08:33N 49°01' W 123°09'0 0.0
2016-May-12 07:33N 49°01' W 123°09'0 0.0
2016-May-12 06:33N 49°01' W 123°09'0 0.0
2016-May-12 05:33N 49°01' W 123°09'0 0.0
2016-May-12 04:33N 49°01' W 123°09'0 0.0
2016-May-12 03:33N 49°01' W 123°09'0 0.0
2016-May-12 02:33N 49°01' W 123°09'0 0.0
2016-May-12 01:33N 49°01' W 123°09'0 0.0
2016-May-12 00:33N 49°01' W 123°09'0 0.0
2016-May-11 23:33N 49°01' W 123°09'0 0.0
2016-May-11 22:33N 49°01' W 123°09'0 0.0
2016-May-11 21:33N 49°01' W 123°09'0 0.0
2016-May-11 20:33N 49°01' W 123°09'0 0.0
2016-May-11 19:33N 49°01' W 123°09'0 0.0
2016-May-11 18:33N 49°01' W 123°09'0 0.0
2016-May-11 17:33N 49°01' W 123°09'0 0.0
2016-May-11 16:33N 49°01' W 123°09'0 0.0
2016-May-11 15:33N 49°01' W 123°09'0 0.0
2016-May-11 14:33N 49°01' W 123°09'0 0.0
2016-May-11 13:30N 49°01' W 123°09'0 0.0
2016-May-11 12:33N 49°01' W 123°09'0 0.0
2016-May-11 11:33N 49°01' W 123°09'0 0.0
2016-May-11 10:33N 49°01' W 123°09'0 0.0
2016-May-11 09:33N 49°01' W 123°09'0 0.0
2016-May-11 08:33N 49°01' W 123°09'0 0.0
2016-May-11 07:33N 49°01' W 123°09'0 0.0
2016-May-11 06:33N 49°01' W 123°09'0 0.0
2016-May-11 05:33N 49°01' W 123°09'0 0.0
2016-May-11 04:33N 49°01' W 123°09'0 0.0
2016-May-11 03:33N 49°01' W 123°09'0 0.0
2016-May-11 02:33N 49°01' W 123°09'0 0.0
2016-May-11 01:33N 49°01' W 123°09'0 0.0
2016-May-11 00:33N 49°01' W 123°09'0 0.0
2016-May-10 23:33N 49°01' W 123°09'0 0.0
2016-May-10 22:33N 49°01' W 123°09'0 0.1
2016-May-10 21:33N 49°01' W 123°09'1010.2
2016-May-10 20:33N 48°52' W 123°02'1414.3
2016-May-10 19:34N 48°41' W 123°15'1616.1
2016-May-10 18:33N 48°25' W 123°11'1211.6
2016-May-10 17:33N 48°19' W 123°25'9 9.3
2016-May-10 16:33N 48°13' W 123°37'1111.4
2016-May-10 15:33N 48°14' W 123°54'1211.8
2016-May-10 14:33N 48°18' W 124°11'2712.5
2016-May-10 12:22N 48°29' W 124°49'1113.8
2016-May-10 11:33N 48°28' W 125°06'1312.7
2016-May-10 10:34N 48°22' W 125°22'1313.1
2016-May-10 09:33N 48°15' W 125°38'1313.1
2016-May-10 08:33N 48°07' W 125°54'1313.1
2016-May-10 07:33N 47°59' W 126°10'1414.0
2016-May-10 06:33N 47°51' W 126°27'3113.7
2016-May-10 04:16N 47°32' W 127°04'1413.4
2016-May-10 03:14N 47°24' W 127°21'913.2
2016-May-10 02:33N 47°19' W 127°32'1313.3
2016-May-10 01:33N 47°11' W 127°47'1313.1
2016-May-10 00:33N 47°03' W 128°03'1313.0
2016-May-09 23:33N 46°55' W 128°18'  

Dump ship's entire track history